Time;durP1;ratioP1;P1;durP2;ratioP2;P2;SDS_P1;SDS_P2;PMS_P1;PMS_P2;Temp;Humidity;BMP_temperature;BMP_pressure;BME280_temperature;BME280_humidity;BME280_pressure;Samples;Min_cycle;Max_cycle;Signal;HPM_P1;HPM_P2
2024/03/19 00:00:49;;;;;;;;;;;;;;;21.62;26.43;97541.28;5039842;28;744;-77
2024/03/19 00:03:15;;;;;;;;;;;;;;;21.79;26.28;97539.88;5022461;28;825;-77
2024/03/19 00:05:41;;;;;;;;;;;;;;;21.76;26.28;97540.81;5039283;28;1967;-77
2024/03/19 00:08:07;;;;;;;;;;;;;;;21.79;26.31;97539.09;5022610;28;707;-77
2024/03/19 00:10:32;;;;;;;;;;;;;;;21.76;26.39;97525.84;5004176;28;750;-77
2024/03/19 00:12:58;;;;;;;;;;;;;;;21.23;26.95;97526.34;5022201;28;791;-77
2024/03/19 00:15:24;;;;;;;;;;;;;;;21.35;26.76;97515.50;5021272;28;830;-77
2024/03/19 00:17:50;;;;;;;;;;;;;;;21.99;26.07;97524.63;5036657;28;898;-76
2024/03/19 00:20:15;;;;;;;;;;;;;;;21.76;26.13;97529.47;4986231;28;1281;-77
2024/03/19 00:22:41;;;;;;;;;;;;;;;21.91;26.21;97524.09;5002493;28;1144;-77
2024/03/19 00:25:07;;;;;;;;;;;;;;;21.85;26.54;97526.72;4983129;28;1146;-77
2024/03/19 00:27:33;;;;;;;;;;;;;;;21.80;26.32;97521.63;4983144;28;1918;-77
2024/03/19 00:29:58;;;;;;;;;;;;;;;21.57;26.57;97522.84;4983061;28;831;-77
2024/03/19 00:32:29;;;;;;;;;;;;;;;21.10;27.01;97480.34;4983232;28;998;-77
2024/03/19 00:34:55;;;;;;;;;;;;;;;21.68;26.59;97510.34;4999371;28;1068;-77
2024/03/19 00:37:21;;;;;;;;;;;;;;;21.64;26.60;97516.13;4999037;28;950;-77
2024/03/19 00:39:47;;;;;;;;;;;;;;;21.54;26.97;97508.78;4998635;28;889;-77
2024/03/19 00:42:12;;;;;;;;;;;;;;;21.84;26.24;97507.34;4966881;28;808;-77
2024/03/19 00:44:39;;;;;;;;;;;;;;;21.88;26.27;97507.25;4966505;28;879;-77
2024/03/19 00:47:04;;;;;;;;;;;;;;;21.40;26.63;97509.28;4999220;28;1926;-77
2024/03/19 00:49:30;;;;;;;;;;;;;;;21.29;26.93;97501.91;4982111;28;891;-77
2024/03/19 00:51:56;;;;;;;;;;;;;;;21.39;26.80;97510.53;5014216;28;951;-77
2024/03/19 00:54:22;;;;;;;;;;;;;;;21.53;26.88;97505.19;5002129;28;1111;-77
2024/03/19 00:56:47;;;;;;;;;;;;;;;21.51;26.74;97509.72;5002409;28;915;-77
2024/03/19 00:59:13;;;;;;;;;;;;;;;21.64;26.60;97501.97;5018221;28;796;-77
2024/03/19 01:01:38;;;;;;;;;;;;;;;21.78;26.16;97498.66;5002559;28;906;-77
2024/03/19 01:04:07;;;;;;;;;;;;;;;21.72;26.48;97489.16;5001441;28;893;-77
2024/03/19 01:06:33;;;;;;;;;;;;;;;21.61;26.52;97494.41;4986349;28;1906;-77
2024/03/19 01:08:59;;;;;;;;;;;;;;;21.47;26.50;97494.91;4969430;28;1104;-77
2024/03/19 01:11:24;;;;;;;;;;;;;;;21.31;26.94;97493.78;4985467;28;791;-77
2024/03/19 01:13:50;;;;;;;;;;;;;;;21.78;26.33;97492.19;5017916;28;1000;-77
2024/03/19 01:16:16;;;;;;;;;;;;;;;21.66;26.47;97484.53;5002144;28;735;-77
2024/03/19 01:18:41;;;;;;;;;;;;;;;21.87;25.96;97483.00;5001662;28;988;-77
2024/03/19 01:21:07;;;;;;;;;;;;;;;21.60;26.56;97473.00;5001899;28;731;-77
2024/03/19 01:23:32;;;;;;;;;;;;;;;21.88;25.91;97481.75;4985252;28;910;-77
2024/03/19 01:25:58;;;;;;;;;;;;;;;21.43;26.58;97482.91;5001641;28;1981;-77
2024/03/19 01:28:24;;;;;;;;;;;;;;;20.96;27.15;97473.09;5001178;28;1282;-77
2024/03/19 01:30:49;;;;;;;;;;;;;;;21.65;26.61;97472.41;5001586;28;1117;-76
2024/03/19 01:33:15;;;;;;;;;;;;;;;21.55;26.67;97467.91;5001053;28;1230;-76
2024/03/19 01:35:40;;;;;;;;;;;;;;;21.73;26.33;97461.63;4997339;28;1136;-77
2024/03/19 01:38:06;;;;;;;;;;;;;;;21.77;26.49;97457.44;5001354;28;1673;-77
2024/03/19 01:40:32;;;;;;;;;;;;;;;21.72;26.23;97460.84;5001086;28;1422;-77
2024/03/19 01:42:57;;;;;;;;;;;;;;;21.41;26.38;97462.78;5001159;28;894;-77
2024/03/19 01:45:24;;;;;;;;;;;;;;;21.44;26.49;97459.00;4984954;28;1910;-77
2024/03/19 01:47:49;;;;;;;;;;;;;;;21.66;26.41;97459.88;4985213;28;814;-76
2024/03/19 01:50:15;;;;;;;;;;;;;;;21.69;26.67;97450.44;5000840;28;963;-77
2024/03/19 01:52:45;;;;;;;;;;;;;;;21.75;26.37;97453.47;4985148;28;1287;-77
2024/03/19 01:55:11;;;;;;;;;;;;;;;21.64;26.63;97453.84;4968942;28;1084;-77
2024/03/19 01:57:36;;;;;;;;;;;;;;;21.71;26.18;97447.13;4985024;28;1172;-77
2024/03/19 02:00:04;;;;;;;;;;;;;;;21.68;26.20;97445.22;5000506;28;707;-77
2024/03/19 02:02:37;;;;;;;;;;;;;;;21.51;26.25;97438.97;4982541;28;827;-77
2024/03/19 02:05:03;;;;;;;;;;;;;;;21.58;26.69;97447.19;4964985;28;1038;-77
2024/03/19 02:07:29;;;;;;;;;;;;;;;21.62;26.45;97444.25;4981169;28;1993;-77
2024/03/19 02:09:57;;;;;;;;;;;;;;;21.56;26.70;97446.88;4981122;28;945;-77
2024/03/19 02:12:24;;;;;;;;;;;;;;;21.80;26.30;97456.50;4981440;28;1072;-77
2024/03/19 02:14:50;;;;;;;;;;;;;;;21.91;26.19;97449.66;4996876;28;963;-77
2024/03/19 02:17:16;;;;;;;;;;;;;;;21.61;26.47;97449.13;4997566;28;933;-77
2024/03/19 02:19:42;;;;;;;;;;;;;;;21.30;26.73;97443.31;4997426;28;1036;-77
2024/03/19 02:22:09;;;;;;;;;;;;;;;21.25;26.74;97450.31;4997786;28;1277;-77
2024/03/19 02:24:38;;;;;;;;;;;;;;;21.44;26.84;97447.69;4996969;28;909;-77
2024/03/19 02:27:04;;;;;;;;;;;;;;;21.47;26.62;97446.78;4980860;28;1981;-76
2024/03/19 02:29:29;;;;;;;;;;;;;;;21.66;26.33;97456.22;4996825;28;875;-77
2024/03/19 02:31:55;;;;;;;;;;;;;;;21.75;26.23;97442.13;4996987;28;1189;-77
2024/03/19 02:34:20;;;;;;;;;;;;;;;21.65;26.34;97448.97;4980561;28;881;-77
2024/03/19 02:36:46;;;;;;;;;;;;;;;21.72;26.11;97441.03;4996900;28;856;-77
2024/03/19 02:39:12;;;;;;;;;;;;;;;21.63;26.13;97451.47;4980408;28;1204;-77
2024/03/19 02:41:38;;;;;;;;;;;;;;;21.42;26.51;97453.03;4964706;28;1384;-77
2024/03/19 02:44:04;;;;;;;;;;;;;;;21.64;26.53;97451.00;4995947;28;1199;-77
2024/03/19 02:46:30;;;;;;;;;;;;;;;21.46;26.45;97448.03;5032420;28;1974;-77
2024/03/19 02:48:55;;;;;;;;;;;;;;;21.52;26.47;97449.03;4999889;28;737;-77
2024/03/19 02:51:21;;;;;;;;;;;;;;;21.81;26.04;97446.78;5000107;28;747;-77
2024/03/19 02:53:47;;;;;;;;;;;;;;;21.82;26.31;97448.34;5016256;28;904;-76
2024/03/19 02:56:12;;;;;;;;;;;;;;;21.56;26.50;97446.88;5016766;28;755;-77
2024/03/19 02:58:38;;;;;;;;;;;;;;;21.66;26.40;97451.38;4999604;28;1433;-77
2024/03/19 03:01:03;;;;;;;;;;;;;;;21.43;26.75;97446.91;4967778;28;1195;-77
2024/03/19 03:03:29;;;;;;;;;;;;;;;21.69;26.24;97450.44;5015327;28;966;-77
2024/03/19 03:05:55;;;;;;;;;;;;;;;21.74;26.54;97444.19;5016153;28;1966;-77
2024/03/19 03:08:20;;;;;;;;;;;;;;;21.69;26.38;97444.75;4999594;28;814;-77
2024/03/19 03:10:46;;;;;;;;;;;;;;;21.69;26.37;97449.63;5016424;28;847;-77
2024/03/19 03:13:12;;;;;;;;;;;;;;;21.71;26.30;97445.13;4999137;28;914;-77
2024/03/19 03:15:37;;;;;;;;;;;;;;;21.65;26.50;97443.31;4999382;28;1235;-77
2024/03/19 03:18:03;;;;;;;;;;;;;;;21.40;26.45;97445.00;4999336;28;788;-77
2024/03/19 03:20:29;;;;;;;;;;;;;;;21.30;26.96;97446.16;5015499;28;936;-77
2024/03/19 03:22:55;;;;;;;;;;;;;;;21.62;26.46;97439.38;4999329;28;1130;-77
2024/03/19 03:25:21;;;;;;;;;;;;;;;21.74;26.24;97435.69;4998940;28;785;-76
2024/03/19 03:27:47;;;;;;;;;;;;;;;21.64;26.71;97442.53;5015539;28;1056;-77
2024/03/19 03:30:12;;;;;;;;;;;;;;;21.74;26.31;97441.34;4999061;28;938;-77
2024/03/19 03:32:38;;;;;;;;;;;;;;;21.26;27.03;97440.56;4995725;28;1432;-77
2024/03/19 03:35:04;;;;;;;;;;;;;;;21.30;26.69;97438.44;4963225;28;773;-77
2024/03/19 03:37:30;;;;;;;;;;;;;;;21.53;26.61;97442.13;4963900;28;1271;-77
2024/03/19 03:39:56;;;;;;;;;;;;;;;21.61;26.72;97443.47;4979526;28;772;-77
2024/03/19 03:42:22;;;;;;;;;;;;;;;21.75;26.38;97440.09;4979726;28;823;-77
2024/03/19 03:44:49;;;;;;;;;;;;;;;21.75;26.20;97440.09;4979369;28;1233;-77
2024/03/19 03:47:14;;;;;;;;;;;;;;;21.73;26.51;97439.78;4980051;28;1914;-77
2024/03/19 03:49:40;;;;;;;;;;;;;;;21.38;26.70;97443.84;4959842;28;1298;-77
2024/03/19 03:52:07;;;;;;;;;;;;;;;21.36;26.47;97433.00;4976491;28;815;-77
2024/03/19 03:54:33;;;;;;;;;;;;;;;21.68;26.45;97437.53;4944546;28;914;-77
2024/03/19 03:56:58;;;;;;;;;;;;;;;21.81;26.13;97429.78;4928735;28;818;-77
2024/03/19 03:59:24;;;;;;;;;;;;;;;21.94;26.11;97431.75;4975488;28;967;-77
2024/03/19 04:01:49;;;;;;;;;;;;;;;21.89;26.34;97429.50;4975900;28;799;-76
2024/03/19 04:04:15;;;;;;;;;;;;;;;21.92;26.40;97422.94;4943703;28;1004;-77
2024/03/19 04:06:41;;;;;;;;;;;;;;;21.58;26.48;97424.53;4944712;28;2008;-77
2024/03/19 04:09:06;;;;;;;;;;;;;;;21.11;27.23;97424.53;4945939;28;1205;-77
2024/03/19 04:11:33;;;;;;;;;;;;;;;21.13;27.26;97427.69;4996153;28;822;-77
2024/03/19 04:13:58;;;;;;;;;;;;;;;21.62;26.64;97438.59;4979208;28;882;-77
2024/03/19 04:16:24;;;;;;;;;;;;;;;21.61;26.84;97440.63;4995961;28;783;-77
2024/03/19 04:18:49;;;;;;;;;;;;;;;21.82;26.58;97445.50;4978769;28;855;-77
2024/03/19 04:21:15;;;;;;;;;;;;;;;21.91;26.33;97441.94;4994423;28;779;-77
2024/03/19 04:23:41;;;;;;;;;;;;;;;21.58;26.39;97450.03;4998575;28;780;-77
2024/03/19 04:26:06;;;;;;;;;;;;;;;21.48;26.60;97456.84;5015459;28;1902;-77
2024/03/19 04:28:32;;;;;;;;;;;;;;;20.86;27.45;97457.25;4998115;28;1237;-77
2024/03/19 04:30:57;;;;;;;;;;;;;;;21.53;26.84;97461.94;5011645;28;1355;-77
2024/03/19 04:33:24;;;;;;;;;;;;;;;21.87;26.07;97466.00;5017041;28;814;-77
2024/03/19 04:35:49;;;;;;;;;;;;;;;21.76;26.46;97467.19;5032558;28;831;-77
2024/03/19 04:38:15;;;;;;;;;;;;;;;21.69;26.68;97460.97;5015739;28;1214;-76
2024/03/19 04:40:41;;;;;;;;;;;;;;;21.64;26.50;97465.16;5033042;28;787;-77
2024/03/19 04:43:07;;;;;;;;;;;;;;;21.37;26.72;97462.09;5032189;28;778;-77
2024/03/19 04:45:32;;;;;;;;;;;;;;;21.35;27.06;97470.22;5051408;28;1899;-77
2024/03/19 04:47:58;;;;;;;;;;;;;;;21.44;27.03;97461.84;5036159;28;860;-77
2024/03/19 04:50:27;;;;;;;;;;;;;;;21.50;26.89;97460.00;5003251;28;1328;-77
2024/03/19 04:52:53;;;;;;;;;;;;;;;21.70;26.80;97471.81;4979368;28;911;-77
2024/03/19 04:55:18;;;;;;;;;;;;;;;21.89;26.46;97460.66;4963108;28;1031;-77
2024/03/19 04:57:44;;;;;;;;;;;;;;;21.43;26.98;97466.72;4963028;28;784;-77
2024/03/19 05:00:12;;;;;;;;;;;;;;;21.56;26.51;97470.31;4962927;28;761;-77
2024/03/19 05:02:37;;;;;;;;;;;;;;;21.50;26.76;97462.84;4963127;28;910;-77
2024/03/19 05:05:03;;;;;;;;;;;;;;;21.57;26.77;97469.06;4979168;28;767;-76
2024/03/19 05:07:29;;;;;;;;;;;;;;;21.66;26.63;97476.03;4979320;28;1915;-77
2024/03/19 05:09:55;;;;;;;;;;;;;;;21.70;26.31;97473.88;4979214;28;1057;-76
2024/03/19 05:12:21;;;;;;;;;;;;;;;21.77;26.55;97467.97;4963649;28;1019;-77
2024/03/19 05:14:46;;;;;;;;;;;;;;;21.75;26.49;97468.41;4979443;28;1672;-77
2024/03/19 05:17:13;;;;;;;;;;;;;;;21.87;26.34;97466.00;4963212;28;1118;-77
2024/03/19 05:19:38;;;;;;;;;;;;;;;21.65;26.17;97471.63;4947401;28;862;-77
2024/03/19 05:22:04;;;;;;;;;;;;;;;21.73;26.26;97479.41;4944004;29;1069;-77
2024/03/19 05:24:30;;;;;;;;;;;;;;;21.72;26.20;97474.22;4957395;28;1085;-77
2024/03/19 05:26:56;;;;;;;;;;;;;;;21.72;26.55;97477.84;4998568;28;1989;-77
2024/03/19 05:29:22;;;;;;;;;;;;;;;21.85;26.38;97487.06;4982547;28;1127;-78
2024/03/19 05:31:48;;;;;;;;;;;;;;;21.79;26.41;97480.41;4982724;28;912;-77
2024/03/19 05:34:13;;;;;;;;;;;;;;;21.87;26.20;97483.78;4982324;28;955;-77
2024/03/19 05:36:39;;;;;;;;;;;;;;;21.24;27.04;97490.38;4982573;28;999;-77
2024/03/19 05:39:09;;;;;;;;;;;;;;;21.42;26.90;97492.66;4997643;28;1234;-78
2024/03/19 05:41:35;;;;;;;;;;;;;;;21.76;26.52;97489.84;4998148;28;1127;-77
2024/03/19 05:44:02;;;;;;;;;;;;;;;21.84;26.36;97491.16;4981430;28;1164;-78
2024/03/19 05:46:27;;;;;;;;;;;;;;;21.89;26.56;97494.66;4997520;28;1981;-78
2024/03/19 05:48:53;;;;;;;;;;;;;;;21.83;26.47;97495.25;4997446;28;1233;-78
2024/03/19 05:51:19;;;;;;;;;;;;;;;21.67;26.63;97492.59;5014735;28;1207;-78
2024/03/19 05:53:44;;;;;;;;;;;;;;;21.12;27.47;97503.28;5016389;28;1310;-78
2024/03/19 05:56:10;;;;;;;;;;;;;;;21.53;26.66;97508.00;5036970;28;967;-78
2024/03/19 05:58:35;;;;;;;;;;;;;;;21.89;26.34;97503.94;5004690;28;868;-78
2024/03/19 06:01:02;;;;;;;;;;;;;;;21.65;27.01;97499.94;5021639;28;857;-78
2024/03/19 06:03:28;;;;;;;;;;;;;;;21.88;26.54;97502.38;5003874;28;923;-78
2024/03/19 06:06:02;;;;;;;;;;;;;;;21.88;26.62;97507.25;5037671;28;1898;-78
2024/03/19 06:08:27;;;;;;;;;;;;;;;21.59;26.58;97513.88;5021820;28;921;-78
2024/03/19 06:10:53;;;;;;;;;;;;;;;21.30;27.13;97514.06;5020754;28;1036;-78
2024/03/19 06:13:19;;;;;;;;;;;;;;;21.38;27.18;97511.78;5000228;28;961;-78
2024/03/19 06:15:44;;;;;;;;;;;;;;;21.70;26.54;97502.97;5000908;28;1108;-78
2024/03/19 06:18:10;;;;;;;;;;;;;;;21.61;26.76;97511.41;4968349;28;1161;-78
2024/03/19 06:20:36;;;;;;;;;;;;;;;21.64;26.64;97504.81;5001357;28;989;-78
2024/03/19 06:23:01;;;;;;;;;;;;;;;21.82;26.68;97510.66;5000631;28;1004;-77
2024/03/19 06:25:27;;;;;;;;;;;;;;;21.74;26.51;97509.31;5017062;28;976;-78
2024/03/19 06:27:53;;;;;;;;;;;;;;;21.68;26.61;97511.16;4997443;28;1918;-78
2024/03/19 06:30:19;;;;;;;;;;;;;;;21.29;26.90;97507.56;4997822;28;916;-78
2024/03/19 06:32:44;;;;;;;;;;;;;;;21.32;27.35;97517.22;4981296;28;1115;-78
2024/03/19 06:35:11;;;;;;;;;;;;;;;21.64;26.82;97509.69;4997133;28;893;-78
2024/03/19 06:37:36;;;;;;;;;;;;;;;21.78;26.58;97509.97;4997535;28;1185;-78
2024/03/19 06:40:05;;;;;;;;;;;;;;;21.93;26.66;97515.16;4958269;28;1034;-78
2024/03/19 06:42:31;;;;;;;;;;;;;;;21.80;26.62;97515.97;4942976;29;988;-78
2024/03/19 06:44:56;;;;;;;;;;;;;;;21.69;26.42;97524.06;4958192;29;967;-78
2024/03/19 06:47:23;;;;;;;;;;;;;;;21.42;26.69;97516.06;4958730;28;1919;-78
2024/03/19 06:49:48;;;;;;;;;;;;;;;21.18;27.40;97526.13;4958297;28;940;-78
2024/03/19 06:52:15;;;;;;;;;;;;;;;21.57;26.75;97516.38;4958616;28;1107;-78
2024/03/19 06:54:41;;;;;;;;;;;;;;;21.40;26.69;97478.13;4973973;28;1036;-78
2024/03/19 06:57:07;;;;;;;;;;;;;;;21.67;26.70;97531.44;4974888;28;962;-78
2024/03/19 06:59:33;;;;;;;;;;;;;;;21.66;26.99;97530.66;4989145;28;1033;-78
2024/03/19 07:01:59;;;;;;;;;;;;;;;21.93;26.46;97532.16;4981329;28;904;-78
2024/03/19 07:04:27;;;;;;;;;;;;;;;21.84;26.61;97535.69;4996761;28;966;-78
2024/03/19 07:06:53;;;;;;;;;;;;;;;21.51;26.88;97535.19;4997011;28;1968;-78
2024/03/19 07:09:20;;;;;;;;;;;;;;;21.38;27.19;97542.91;4996857;28;1009;-78
2024/03/19 07:11:45;;;;;;;;;;;;;;;21.07;27.34;97540.63;5010100;28;881;-78
2024/03/19 07:14:11;;;;;;;;;;;;;;;21.45;27.34;97537.81;5017460;28;1000;-78
2024/03/19 07:16:38;;;;;;;;;;;;;;;21.76;26.87;97540.00;5050953;28;1146;-77
2024/03/19 07:19:04;;;;;;;;;;;;;;;21.90;26.80;97547.22;5027169;28;1669;-76
2024/03/19 07:21:30;;;;;;;;;;;;;;;23.02;26.07;97537.81;5031337;28;1529;-76
2024/03/19 07:23:55;;;;;;;;;;;;;;;23.70;25.25;97539.97;5027105;28;1565;-78
2024/03/19 07:26:21;;;;;;;;;;;;;;;24.01;24.74;97548.38;5023256;28;1914;-78
2024/03/19 07:28:47;;;;;;;;;;;;;;;24.23;25.08;97553.88;5024194;28;1479;-78
2024/03/19 07:31:13;;;;;;;;;;;;;;;24.40;25.28;97547.44;5027650;28;1536;-77
2024/03/19 07:33:39;;;;;;;;;;;;;;;24.72;25.29;97550.88;5025143;28;1502;-77
2024/03/19 07:36:05;;;;;;;;;;;;;;;24.66;25.42;97553.59;5007235;28;1706;-76
2024/03/19 07:38:30;;;;;;;;;;;;;;;24.67;26.00;97555.16;5030508;28;1466;-79
2024/03/19 07:40:56;;;;;;;;;;;;;;;24.94;25.63;97562.84;5026291;28;1601;-78
2024/03/19 07:43:22;;;;;;;;;;;;;;;25.00;25.64;97559.34;5026993;28;1517;-77
2024/03/19 07:45:48;;;;;;;;;;;;;;;25.19;25.72;97558.03;5025021;28;1980;-79
2024/03/19 07:48:15;;;;;;;;;;;;;;;25.27;25.82;97562.09;5026196;28;1477;-80
2024/03/19 07:50:41;;;;;;;;;;;;;;;25.26;26.41;97566.22;5042042;28;1520;-79
2024/03/19 07:53:06;;;;;;;;;;;;;;;25.27;26.67;97573.50;5025436;28;1519;-70
2024/03/19 07:55:32;;;;;;;;;;;;;;;25.49;26.44;97561.09;5026441;28;1518;-71
2024/03/19 07:57:59;;;;;;;;;;;;;;;25.49;26.32;97566.78;5025985;28;1483;-71
2024/03/19 08:00:25;;;;;;;;;;;;;;;25.42;26.48;97567.91;5023502;28;1626;-71
2024/03/19 08:02:50;;;;;;;;;;;;;;;25.18;27.16;97579.25;5026397;28;1442;-72
2024/03/19 08:05:16;;;;;;;;;;;;;;;25.50;26.90;97569.16;5025680;28;1481;-72
2024/03/19 08:07:44;;;;;;;;;;;;;;;25.38;27.32;97565.25;5025076;28;1985;-73
2024/03/19 08:10:10;;;;;;;;;;;;;;;25.66;26.72;97562.25;5057683;28;1470;-72
2024/03/19 08:12:36;;;;;;;;;;;;;;;25.31;27.42;97561.94;5018680;28;1480;-73
2024/03/19 08:15:03;;;;;;;;;;;;;;;25.57;27.70;97568.78;5031254;28;968;-72
2024/03/19 08:17:32;;;;;;;;;;;;;;;25.54;27.47;97568.97;5047422;28;934;-72
2024/03/19 08:19:58;;;;;;;;;;;;;;;25.55;27.73;97567.69;5025977;28;1531;-71
2024/03/19 08:22:23;;;;;;;;;;;;;;;25.66;27.73;97559.41;5028450;28;1546;-72
2024/03/19 08:24:49;;;;;;;;;;;;;;;25.77;27.66;97556.81;5045118;28;1569;-72
2024/03/19 08:27:15;;;;;;;;;;;;;;;25.91;27.45;97553.25;5031069;28;1980;-74
2024/03/19 08:29:41;;;;;;;;;;;;;;;26.08;27.06;97567.06;5028711;28;1464;-73
2024/03/19 08:32:07;;;;;;;;;;;;;;;26.12;26.91;97564.84;5069388;28;1519;-73
2024/03/19 08:34:33;;;;;;;;;;;;;;;25.96;26.44;97563.22;5038977;28;866;-78
2024/03/19 08:36:58;;;;;;;;;;;;;;;25.16;28.11;97564.69;5039874;28;871;-78
2024/03/19 08:39:24;;;;;;;;;;;;;;;24.84;28.86;97569.03;5021510;28;1056;-78
2024/03/19 08:41:50;;;;;;;;;;;;;;;24.47;29.70;97568.28;5038573;28;970;-78
2024/03/19 08:44:16;;;;;;;;;;;;;;;24.59;29.55;97567.31;5005010;28;989;-80
2024/03/19 08:46:42;;;;;;;;;;;;;;;24.36;29.78;97563.88;5023043;28;1895;-79
2024/03/19 08:49:07;;;;;;;;;;;;;;;24.55;29.45;97563.84;5006302;28;935;-80
2024/03/19 08:51:34;;;;;;;;;;;;;;;24.41;29.79;97560.41;5023523;28;1075;-79
2024/03/19 08:53:59;;;;;;;;;;;;;;;24.35;29.92;97555.81;5038674;28;899;-78
2024/03/19 08:56:25;;;;;;;;;;;;;;;24.48;29.54;97564.19;5006863;28;907;-80
2024/03/19 08:58:50;;;;;;;;;;;;;;;24.18;30.17;97569.53;5037832;28;890;-78
2024/03/19 09:01:16;;;;;;;;;;;;;;;23.89;30.45;97570.78;5020168;28;1051;-73
2024/03/19 09:03:42;;;;;;;;;;;;;;;24.28;29.48;97562.56;5037136;28;1025;-77
2024/03/19 09:06:07;;;;;;;;;;;;;;;23.94;29.80;97554.38;5020635;28;1910;-76
2024/03/19 09:08:33;;;;;;;;;;;;;;;23.91;29.95;97556.88;5036674;28;972;-75
2024/03/19 09:10:58;;;;;;;;;;;;;;;23.66;29.85;97557.13;5015982;28;1053;-77
2024/03/19 09:13:24;;;;;;;;;;;;;;;23.55;30.00;97551.88;5036827;28;938;-77
2024/03/19 09:15:50;;;;;;;;;;;;;;;23.10;30.56;97549.66;5001055;28;1449;-78
2024/03/19 09:18:15;;;;;;;;;;;;;;;23.15;30.00;97557.56;5000953;28;969;-78
2024/03/19 09:20:41;;;;;;;;;;;;;;;23.24;29.94;97549.09;4984184;28;1317;-78
2024/03/19 09:23:07;;;;;;;;;;;;;;;23.19;30.00;97558.22;5016801;28;936;-77
2024/03/19 09:25:33;;;;;;;;;;;;;;;23.11;29.77;97563.41;4974297;28;1236;-76
2024/03/19 09:27:58;;;;;;;;;;;;;;;23.05;29.81;97558.78;4973838;28;1902;-77
2024/03/19 09:30:24;;;;;;;;;;;;;;;22.97;29.87;97563.16;4974159;28;1041;-77
2024/03/19 09:32:49;;;;;;;;;;;;;;;23.17;29.32;97549.41;4973565;28;1006;-77
2024/03/19 09:35:15;;;;;;;;;;;;;;;23.12;29.12;97558.50;4972031;28;1598;-78
2024/03/19 09:37:44;;;;;;;;;;;;;;;23.06;28.98;97566.06;4938988;29;2308;-77
2024/03/19 09:40:10;;;;;;;;;;;;;;;23.08;29.18;97560.69;4973568;28;1012;-73
2024/03/19 09:42:39;;;;;;;;;;;;;;;22.99;29.10;97563.47;4976875;28;1118;-72
2024/03/19 09:45:05;;;;;;;;;;;;;;;23.29;28.52;97557.00;4976533;28;1305;-72
2024/03/19 09:47:33;;;;;;;;;;;;;;;22.91;28.64;97550.84;4976100;28;1915;-73
2024/03/19 09:49:59;;;;;;;;;;;;;;;22.82;28.94;97554.38;4976710;28;977;-72
2024/03/19 09:52:25;;;;;;;;;;;;;;;22.53;29.31;97557.50;4979503;28;1549;-76
2024/03/19 09:54:50;;;;;;;;;;;;;;;22.81;28.67;97562.09;4963992;28;1509;-76
2024/03/19 09:57:17;;;;;;;;;;;;;;;22.30;29.76;97559.56;4995046;28;1314;-78
2024/03/19 09:59:43;;;;;;;;;;;;;;;22.49;29.46;97562.53;4991079;28;1564;-76
2024/03/19 10:02:13;;;;;;;;;;;;;;;22.87;28.60;97560.25;4991242;28;1515;-76
2024/03/19 10:04:44;;;;;;;;;;;;;;;22.53;29.19;97561.13;5011614;28;1878;-76
2024/03/19 10:07:09;;;;;;;;;;;;;;;22.72;29.03;97562.03;4976544;28;1918;-71
2024/03/19 10:09:35;;;;;;;;;;;;;;;22.99;28.34;97563.47;4976247;28;1548;-71
2024/03/19 10:12:00;;;;;;;;;;;;;;;22.82;28.04;97566.53;4976097;28;1627;-71
2024/03/19 10:14:26;;;;;;;;;;;;;;;22.89;27.87;97559.81;4975881;28;1555;-71
2024/03/19 10:16:51;;;;;;;;;;;;;;;22.70;28.03;97567.41;4975764;28;1635;-71
2024/03/19 10:19:19;;;;;;;;;;;;;;;22.54;28.23;97559.13;4984178;28;1515;-71
2024/03/19 10:21:44;;;;;;;;;;;;;;;22.51;28.35;97554.34;4998765;28;1484;-71
2024/03/19 10:24:14;;;;;;;;;;;;;;;22.42;28.57;97560.75;5015363;28;1086;-71
2024/03/19 10:26:40;;;;;;;;;;;;;;;22.90;27.71;97569.91;5014547;28;1976;-72
2024/03/19 10:29:06;;;;;;;;;;;;;;;22.58;28.26;97565.41;5014986;28;1604;-72
2024/03/19 10:31:31;;;;;;;;;;;;;;;22.71;27.77;97566.16;5014714;28;1589;-71
2024/03/19 10:33:57;;;;;;;;;;;;;;;22.44;28.57;97565.97;5015565;28;1114;-71
2024/03/19 10:36:23;;;;;;;;;;;;;;;22.41;28.71;97566.88;5015037;28;1123;-71
2024/03/19 10:38:49;;;;;;;;;;;;;;;23.02;27.54;97559.72;5015928;28;974;-72
2024/03/19 10:41:15;;;;;;;;;;;;;;;22.87;27.61;97554.56;5032071;28;1016;-71
2024/03/19 10:43:40;;;;;;;;;;;;;;;22.97;27.34;97557.50;5016776;28;960;-72
2024/03/19 10:46:06;;;;;;;;;;;;;;;23.08;27.05;97557.88;5032317;28;1983;-71
2024/03/19 10:48:31;;;;;;;;;;;;;;;23.01;27.37;97558.16;5017121;28;983;-71
2024/03/19 10:50:57;;;;;;;;;;;;;;;23.03;27.09;97555.63;5026874;28;1583;-70
2024/03/19 10:53:23;;;;;;;;;;;;;;;23.20;26.97;97565.47;5029400;28;1380;-71
2024/03/19 10:55:50;;;;;;;;;;;;;;;23.09;26.87;97562.28;5054029;28;1517;-77
2024/03/19 10:58:17;;;;;;;;;;;;;;;22.90;27.19;97552.91;5031804;28;1311;-74
2024/03/19 11:00:42;;;;;;;;;;;;;;;22.71;27.37;97557.63;5048844;28;1113;-72
2024/03/19 11:03:11;;;;;;;;;;;;;;;22.81;27.41;97562.09;5016943;28;930;-73
2024/03/19 11:05:37;;;;;;;;;;;;;;;22.65;27.49;97570.84;5016842;28;970;-74
2024/03/19 11:08:03;;;;;;;;;;;;;;;22.81;26.98;97567.78;5048373;28;1902;-73
2024/03/19 11:10:29;;;;;;;;;;;;;;;22.86;27.22;97564.34;5016655;28;970;-74
2024/03/19 11:12:56;;;;;;;;;;;;;;;22.80;27.33;97566.22;5049033;28;1514;-72
2024/03/19 11:15:22;;;;;;;;;;;;;;;22.92;27.03;97566.59;5025120;28;1446;-72
2024/03/19 11:17:47;;;;;;;;;;;;;;;22.88;27.05;97561.84;5036571;28;1006;-75
2024/03/19 11:20:13;;;;;;;;;;;;;;;22.79;27.31;97575.94;5035044;28;902;-76
2024/03/19 11:22:40;;;;;;;;;;;;;;;22.87;27.11;97582.16;5018975;28;1002;-76
2024/03/19 11:25:06;;;;;;;;;;;;;;;22.75;27.73;97583.81;5034964;28;948;-76
2024/03/19 11:27:32;;;;;;;;;;;;;;;22.70;27.78;97597.81;5034863;28;1906;-75
2024/03/19 11:30:04;;;;;;;;;;;;;;;22.59;27.68;97601.06;5033445;28;1262;-75
2024/03/19 11:32:30;;;;;;;;;;;;;;;22.68;27.59;97597.47;5034232;28;995;-77
2024/03/19 11:34:55;;;;;;;;;;;;;;;22.80;27.30;97600.25;5001233;28;1286;-77
2024/03/19 11:37:21;;;;;;;;;;;;;;;22.53;27.70;97600.03;4985280;28;1487;-77
2024/03/19 11:39:49;;;;;;;;;;;;;;;22.63;27.64;97596.00;5014445;28;1055;-76
2024/03/19 11:42:15;;;;;;;;;;;;;;;22.36;28.13;97597.38;5014194;28;975;-76
2024/03/19 11:44:41;;;;;;;;;;;;;;;22.21;28.44;97601.19;4998052;28;1071;-72
2024/03/19 11:47:07;;;;;;;;;;;;;;;22.25;28.93;97594.16;4997551;28;1907;-71
2024/03/19 11:49:33;;;;;;;;;;;;;;;22.55;28.57;97584.16;5014032;28;1067;-71
2024/03/19 11:51:59;;;;;;;;;;;;;;;22.66;28.58;97592.25;5014038;28;969;-71
2024/03/19 11:54:29;;;;;;;;;;;;;;;22.91;28.17;97594.19;5013240;28;1159;-72
2024/03/19 11:56:55;;;;;;;;;;;;;;;23.06;28.50;97597.28;5013916;28;1054;-71
2024/03/19 11:59:27;;;;;;;;;;;;;;;23.32;28.34;97595.81;5013975;28;1054;-72
2024/03/19 12:01:54;;;;;;;;;;;;;;;23.14;28.62;97596.50;5013813;28;1038;-72
2024/03/19 12:04:19;;;;;;;;;;;;;;;23.36;28.54;97590.78;5014078;28;1045;-73
2024/03/19 12:06:48;;;;;;;;;;;;;;;23.48;28.65;97591.16;5013762;28;1973;-76
2024/03/19 12:09:16;;;;;;;;;;;;;;;23.12;29.41;97598.25;4997662;28;1226;-74
2024/03/19 12:11:45;;;;;;;;;;;;;;;23.21;29.42;97589.78;4992249;28;1197;-76
2024/03/19 12:14:16;;;;;;;;;;;;;;;23.44;29.12;97590.50;5010629;28;981;-76
2024/03/19 12:16:42;;;;;;;;;;;;;;;23.62;28.84;97596.22;5010512;28;1002;-76
2024/03/19 12:19:11;;;;;;;;;;;;;;;23.48;29.16;97596.81;5010769;28;975;-72
2024/03/19 12:21:40;;;;;;;;;;;;;;;23.62;29.06;97599.88;4994132;28;1052;-70
2024/03/19 12:24:06;;;;;;;;;;;;;;;23.29;29.26;97590.28;4994545;28;1496;-79
2024/03/19 12:26:32;;;;;;;;;;;;;;;23.12;28.85;97598.25;4995362;28;1973;-78
2024/03/19 12:28:57;;;;;;;;;;;;;;;22.82;29.08;97589.22;4994691;28;1143;-79
2024/03/19 12:31:24;;;;;;;;;;;;;;;22.99;28.93;97597.53;4995095;28;1235;-79
2024/03/19 12:34:05;;;;;;;;;;;;;;;22.17;30.33;97604.16;5010546;28;972;-78
2024/03/19 12:36:30;;;;;;;;;;;;;;;22.16;30.37;97590.44;4975108;28;939;-78
2024/03/19 12:38:56;;;;;;;;;;;;;;;22.12;29.78;97590.56;4955864;29;1008;-78
2024/03/19 12:41:22;;;;;;;;;;;;;;;22.14;29.86;97588.06;4956443;29;1042;-79
2024/03/19 12:43:49;;;;;;;;;;;;;;;22.02;29.64;97589.69;4943462;28;1072;-78
2024/03/19 12:46:15;;;;;;;;;;;;;;;21.57;30.36;97596.44;4958564;28;1887;-79
2024/03/19 12:48:41;;;;;;;;;;;;;;;21.79;30.19;97590.06;4968678;28;1378;-79
2024/03/19 12:51:07;;;;;;;;;;;;;;;21.33;30.73;97587.50;4959396;28;1137;-78
2024/03/19 12:53:33;;;;;;;;;;;;;;;21.68;30.73;97596.09;4942791;28;1194;-79